Time;durP1;ratioP1;P1;durP2;ratioP2;P2;SDS_P1;SDS_P2;PMS_P1;PMS_P2;Temp;Humidity;BMP_temperature;BMP_pressure;BME280_temperature;BME280_humidity;BME280_pressure;Samples;Min_cycle;Max_cycle;Signal;HPM_P1;HPM_P2
2023/07/24 00:00:46;;;;;;;25.58;8.77;;;30.20;79.40;;;;;;6214742;23;20080;-72
2023/07/24 00:03:12;;;;;;;18.23;8.30;;;30.30;79.60;;;;;;6208592;23;20024;-72
2023/07/24 00:05:38;;;;;;;17.98;8.10;;;30.20;79.50;;;;;;6214688;23;20461;-72
2023/07/24 00:08:04;;;;;;;18.45;8.00;;;30.10;79.70;;;;;;6214635;23;20027;-72
2023/07/24 00:10:29;;;;;;;17.77;7.75;;;30.10;79.60;;;;;;6214846;23;20008;-72
2023/07/24 00:12:55;;;;;;;22.10;9.25;;;30.00;79.90;;;;;;6214660;23;19996;-73
2023/07/24 00:15:21;;;;;;;21.88;8.50;;;30.00;80.30;;;;;;6214782;23;20005;-73
2023/07/24 00:17:47;;;;;;;19.80;8.63;;;29.90;80.30;;;;;;6213471;23;20008;-71
2023/07/24 00:20:12;;;;;;;19.92;8.02;;;30.00;80.60;;;;;;6214743;23;20001;-72
2023/07/24 00:22:38;;;;;;;16.98;8.07;;;29.90;80.70;;;;;;6187631;23;20334;-71
2023/07/24 00:25:05;;;;;;;21.48;8.88;;;29.90;80.70;;;;;;6214586;23;20034;-72
2023/07/24 00:27:31;;;;;;;20.98;8.55;;;29.80;80.50;;;;;;6213969;23;20049;-72
2023/07/24 00:29:57;;;;;;;19.38;8.35;;;29.80;80.80;;;;;;6214311;23;20059;-71
2023/07/24 00:32:23;;;;;;;20.17;8.15;;;29.70;80.80;;;;;;6214135;23;20377;-72
2023/07/24 00:34:48;;;;;;;25.80;8.40;;;29.80;80.90;;;;;;6214227;23;20333;-72
2023/07/24 00:37:14;;;;;;;21.40;8.73;;;29.80;80.60;;;;;;6215834;23;19997;-72
2023/07/24 00:39:39;;;;;;;22.40;8.23;;;29.80;80.40;;;;;;6225162;23;20143;-71
2023/07/24 00:42:06;;;;;;;23.48;8.43;;;29.80;80.30;;;;;;6214032;23;20048;-73
2023/07/24 00:44:31;;;;;;;18.65;8.63;;;29.90;80.00;;;;;;6213941;23;20071;-71
2023/07/24 00:46:57;;;;;;;23.60;9.93;;;29.90;80.20;;;;;;6214041;23;20027;-71
2023/07/24 00:49:23;;;;;;;22.73;8.43;;;29.90;79.90;;;;;;6213904;23;20158;-72
2023/07/24 00:51:51;;;;;;;20.67;8.75;;;29.90;79.90;;;;;;6213750;23;20120;-71
2023/07/24 00:54:18;;;;;;;17.20;8.60;;;30.00;79.90;;;;;;6214194;23;20088;-72
2023/07/24 00:56:45;;;;;;;24.13;9.48;;;29.90;80.00;;;;;;6214003;23;20000;-72
2023/07/24 00:59:11;;;;;;;20.85;8.95;;;29.90;80.00;;;;;;6214197;23;20059;-72
2023/07/24 01:01:37;;;;;;;26.23;8.68;;;29.90;80.20;;;;;;6213771;23;20027;-72
2023/07/24 01:04:06;;;;;;;17.67;8.32;;;29.90;80.50;;;;;;6214053;23;20012;-72
2023/07/24 01:06:31;;;;;;;19.75;7.82;;;29.90;80.50;;;;;;6213934;23;20015;-71
2023/07/24 01:08:57;;;;;;;18.52;8.30;;;29.90;80.50;;;;;;6213819;23;20001;-71
2023/07/24 01:11:36;;;;;;;17.35;7.60;;;29.90;80.90;;;;;;6213931;23;20383;-71
2023/07/24 01:14:15;;;;;;;20.15;8.40;;;29.90;80.80;;;;;;6214104;23;20007;-72
2023/07/24 01:16:45;;;;;;;18.52;8.23;;;29.90;80.30;;;;;;6213728;23;20063;-72
2023/07/24 01:19:24;;;;;;;15.95;7.75;;;29.80;81.20;;;;;;6214014;23;20007;-72
2023/07/24 01:22:04;;;;;;;16.35;8.02;;;29.70;80.80;;;;;;6214115;23;20028;-73
2023/07/24 01:24:57;;;;;;;15.98;8.27;;;29.70;81.50;;;;;;6213523;23;20009;-72
2023/07/24 01:27:26;;;;;;;19.13;7.93;;;29.70;81.60;;;;;;6213732;23;20478;-72
2023/07/24 01:29:52;;;;;;;25.70;9.32;;;29.70;82.00;;;;;;6213951;23;20426;-72
2023/07/24 01:32:19;;;;;;;18.15;7.43;;;29.70;82.20;;;;;;6216277;23;20020;-72
2023/07/24 01:34:45;;;;;;;25.00;8.43;;;29.70;82.00;;;;;;6226504;23;20334;-72
2023/07/24 01:37:12;;;;;;;23.92;8.98;;;29.70;81.90;;;;;;6213566;23;20055;-72
2023/07/24 01:39:40;;;;;;;22.85;9.50;;;29.70;81.80;;;;;;6213719;23;20015;-71
2023/07/24 01:42:06;;;;;;;18.17;7.90;;;29.70;81.80;;;;;;6213743;23;20033;-71
2023/07/24 01:44:32;;;;;;;22.08;8.60;;;29.70;81.90;;;;;;6213373;23;20009;-73
2023/07/24 01:46:58;;;;;;;18.08;8.55;;;29.70;81.90;;;;;;6213731;23;20028;-72
2023/07/24 01:49:23;;;;;;;22.60;10.05;;;29.70;81.90;;;;;;6215533;23;20096;-72
2023/07/24 01:51:49;;;;;;;22.30;9.43;;;29.70;82.30;;;;;;6189264;23;20018;-72
2023/07/24 01:54:15;;;;;;;21.27;10.07;;;29.60;82.40;;;;;;6216100;23;20388;-72
2023/07/24 01:56:40;;;;;;;22.85;9.75;;;29.60;82.90;;;;;;6215621;23;20005;-71
2023/07/24 01:59:06;;;;;;;28.55;10.32;;;29.50;82.80;;;;;;6215744;23;20032;-71
2023/07/24 02:01:32;;;;;;;22.08;9.40;;;29.50;83.70;;;;;;6215724;23;20000;-71
2023/07/24 02:03:57;;;;;;;21.75;9.95;;;29.50;82.90;;;;;;6215721;23;20397;-71
2023/07/24 02:06:23;;;;;;;23.95;10.18;;;29.50;83.10;;;;;;6216083;23;20328;-72
2023/07/24 02:08:51;;;;;;;25.08;10.50;;;29.50;83.50;;;;;;6215460;23;19997;-72
2023/07/24 02:11:17;;;;;;;29.52;10.43;;;29.40;83.70;;;;;;6188903;23;20092;-72
2023/07/24 02:13:46;;;;;;;21.10;9.25;;;29.40;83.80;;;;;;6215863;23;20024;-71
2023/07/24 02:16:13;;;;;;;25.92;10.32;;;29.40;83.50;;;;;;6215663;23;20000;-71
2023/07/24 02:18:41;;;;;;;25.50;9.98;;;29.40;83.60;;;;;;6215613;23;20008;-71
2023/07/24 02:21:06;;;;;;;20.27;9.95;;;29.40;83.40;;;;;;6215861;23;20028;-71
2023/07/24 02:23:32;;;;;;;29.20;10.02;;;29.40;83.50;;;;;;6215752;23;20049;-72
2023/07/24 02:25:58;;;;;;;22.33;9.40;;;29.40;83.10;;;;;;6215941;23;20008;-72
2023/07/24 02:28:23;;;;;;;24.38;9.23;;;29.40;82.70;;;;;;6232176;23;20044;-72
2023/07/24 02:30:51;;;;;;;20.58;9.23;;;29.30;82.20;;;;;;6220813;23;20047;-73
2023/07/24 02:33:17;;;;;;;23.38;9.25;;;29.30;81.70;;;;;;6215579;23;20001;-72
2023/07/24 02:35:43;;;;;;;22.48;8.88;;;29.30;81.30;;;;;;6215707;23;20120;-72
2023/07/24 02:38:09;;;;;;;18.50;8.60;;;29.30;81.00;;;;;;6215775;23;20023;-72
2023/07/24 02:40:36;;;;;;;21.35;9.00;;;29.20;81.00;;;;;;6215981;23;20079;-72
2023/07/24 02:43:01;;;;;;;18.33;8.43;;;29.20;81.00;;;;;;6215992;23;20000;-72
2023/07/24 02:45:27;;;;;;;19.65;9.05;;;29.20;80.90;;;;;;6215902;23;20021;-72
2023/07/24 02:47:53;;;;;;;23.02;9.20;;;29.20;80.90;;;;;;6216097;23;20069;-72
2023/07/24 02:50:19;;;;;;;23.25;9.77;;;29.10;80.70;;;;;;6215852;23;20470;-71
2023/07/24 02:52:44;;;;;;;18.08;8.55;;;29.10;80.80;;;;;;6215402;23;20007;-72
2023/07/24 02:55:10;;;;;;;20.30;9.13;;;29.10;80.80;;;;;;6215457;23;20001;-71
2023/07/24 02:57:35;;;;;;;20.08;9.45;;;29.10;81.10;;;;;;6215238;23;20507;-72
2023/07/24 03:00:02;;;;;;;20.98;9.90;;;29.10;80.70;;;;;;6214770;23;20007;-72
2023/07/24 03:02:28;;;;;;;24.73;9.60;;;29.10;80.60;;;;;;6216238;23;20016;-71
2023/07/24 03:04:54;;;;;;;17.38;8.70;;;29.10;81.10;;;;;;6215378;23;20023;-72
2023/07/24 03:07:19;;;;;;;20.23;8.85;;;29.10;80.40;;;;;;6215579;23;20416;-71
2023/07/24 03:09:45;;;;;;;20.63;9.30;;;29.10;80.40;;;;;;6188902;23;20411;-71
2023/07/24 03:12:11;;;;;;;20.10;9.45;;;29.10;80.10;;;;;;6215410;23;20005;-72
2023/07/24 03:14:37;;;;;;;23.70;9.07;;;29.10;79.90;;;;;;6215486;23;20331;-71
2023/07/24 03:17:02;;;;;;;19.10;8.70;;;29.10;80.00;;;;;;6188370;23;20342;-71
2023/07/24 03:19:28;;;;;;;20.85;8.65;;;29.10;79.60;;;;;;6214519;23;20007;-72
2023/07/24 03:21:54;;;;;;;19.02;8.20;;;29.10;79.70;;;;;;6232209;23;20012;-72
2023/07/24 03:24:19;;;;;;;24.17;10.02;;;29.10;79.70;;;;;;6215496;23;20008;-73
2023/07/24 03:26:45;;;;;;;22.65;9.63;;;29.10;79.90;;;;;;6215176;23;20371;-73
2023/07/24 03:29:11;;;;;;;22.83;8.57;;;29.00;79.70;;;;;;6215237;23;20051;-71
2023/07/24 03:31:36;;;;;;;17.42;8.65;;;29.00;79.50;;;;;;6215380;23;20005;-72
2023/07/24 03:34:02;;;;;;;26.23;9.55;;;29.00;79.60;;;;;;6215557;23;20004;-73
2023/07/24 03:36:28;;;;;;;21.80;9.05;;;29.00;79.30;;;;;;6215475;23;20005;-71
2023/07/24 03:38:53;;;;;;;22.90;8.80;;;29.00;79.10;;;;;;6215508;23;20009;-72
2023/07/24 03:41:19;;;;;;;19.73;9.40;;;29.00;79.00;;;;;;6215065;23;20313;-72
2023/07/24 03:43:45;;;;;;;22.15;8.80;;;29.00;78.70;;;;;;6214858;23;20000;-72
2023/07/24 03:46:10;;;;;;;25.40;8.40;;;29.10;78.70;;;;;;6215192;23;20051;-72
2023/07/24 03:48:36;;;;;;;20.65;8.80;;;29.10;78.50;;;;;;6215277;23;20067;-72
2023/07/24 03:51:02;;;;;;;17.42;7.65;;;29.00;78.20;;;;;;6215000;23;20000;-72
2023/07/24 03:53:28;;;;;;;21.95;9.25;;;29.10;78.20;;;;;;6215012;23;20004;-72
2023/07/24 03:55:54;;;;;;;20.30;8.55;;;29.00;77.90;;;;;;6214833;23;20004;-72
2023/07/24 03:58:20;;;;;;;22.30;8.55;;;29.00;77.90;;;;;;6215450;23;20009;-72
2023/07/24 04:00:46;;;;;;;24.33;8.35;;;29.00;77.80;;;;;;6214532;23;20071;-72
2023/07/24 04:03:12;;;;;;;19.15;7.88;;;29.00;78.10;;;;;;6214859;23;20517;-73
2023/07/24 04:05:38;;;;;;;21.48;8.07;;;29.10;78.00;;;;;;6214381;23;20016;-71
2023/07/24 04:08:03;;;;;;;17.00;8.38;;;29.00;78.20;;;;;;6214629;23;20059;-71
2023/07/24 04:10:30;;;;;;;24.45;8.55;;;29.10;78.30;;;;;;6187782;23;20009;-71
2023/07/24 04:12:57;;;;;;;26.25;8.13;;;29.10;78.20;;;;;;6214800;23;20412;-72
2023/07/24 04:15:23;;;;;;;20.20;7.85;;;29.10;78.10;;;;;;6228934;23;20008;-73
2023/07/24 04:17:48;;;;;;;26.85;8.10;;;29.20;77.90;;;;;;6215816;23;20022;-71
2023/07/24 04:20:14;;;;;;;23.52;8.32;;;29.30;77.80;;;;;;6214448;23;20025;-72
2023/07/24 04:22:40;;;;;;;25.02;7.97;;;29.30;77.30;;;;;;6214376;23;19997;-71
2023/07/24 04:25:06;;;;;;;23.30;7.95;;;29.30;77.40;;;;;;6214405;23;20020;-69
2023/07/24 04:27:32;;;;;;;34.22;8.25;;;29.30;76.80;;;;;;6214196;23;20003;-72
2023/07/24 04:29:57;;;;;;;22.02;7.95;;;29.40;77.00;;;;;;6214201;23;20343;-72
2023/07/24 04:32:23;;;;;;;23.70;7.68;;;29.40;76.60;;;;;;6214680;23;20005;-72
2023/07/24 04:34:49;;;;;;;25.50;8.27;;;29.40;76.20;;;;;;6214191;23;20001;-71
2023/07/24 04:37:14;;;;;;;27.27;8.27;;;29.40;76.20;;;;;;6214425;23;20004;-72
2023/07/24 04:39:40;;;;;;;21.17;8.52;;;29.40;75.70;;;;;;6214181;23;20309;-72
2023/07/24 04:42:06;;;;;;;23.55;8.50;;;29.40;75.70;;;;;;6214564;23;20005;-72
2023/07/24 04:44:32;;;;;;;23.77;8.35;;;29.40;75.60;;;;;;6214016;23;20032;-72
2023/07/24 04:46:58;;;;;;;23.80;8.93;;;29.40;75.60;;;;;;6214450;23;20004;-72
2023/07/24 04:49:24;;;;;;;25.45;8.80;;;29.30;75.50;;;;;;6214262;23;20071;-72
2023/07/24 04:51:50;;;;;;;25.40;8.73;;;29.30;75.50;;;;;;6213838;23;20067;-72
2023/07/24 04:54:17;;;;;;;21.38;8.00;;;29.30;75.60;;;;;;6213989;23;20004;-72
2023/07/24 04:56:43;;;;;;;22.88;8.27;;;29.40;75.40;;;;;;6213672;23;20094;-72
2023/07/24 04:59:08;;;;;;;23.73;8.40;;;29.50;75.00;;;;;;6214610;23;20299;-72
2023/07/24 05:01:34;;;;;;;21.25;8.48;;;29.60;75.00;;;;;;6214073;23;20001;-71
2023/07/24 05:04:00;;;;;;;20.27;8.43;;;29.60;75.50;;;;;;6187672;23;20016;-72
2023/07/24 05:06:26;;;;;;;25.50;8.82;;;29.50;76.00;;;;;;6215167;23;20000;-73
2023/07/24 05:08:55;;;;;;;21.95;8.48;;;29.40;76.60;;;;;;6220250;23;20035;-71
2023/07/24 05:11:21;;;;;;;19.30;8.63;;;29.40;77.30;;;;;;6187333;23;20027;-73
2023/07/24 05:13:47;;;;;;;21.13;8.68;;;29.30;77.60;;;;;;6213730;23;20013;-72
2023/07/24 05:16:12;;;;;;;22.90;8.48;;;29.30;77.80;;;;;;6214426;23;20008;-72
2023/07/24 05:18:38;;;;;;;24.67;9.48;;;29.30;77.70;;;;;;6213938;23;20001;-72
2023/07/24 05:21:03;;;;;;;26.27;8.70;;;29.30;77.70;;;;;;6213678;23;20005;-72
2023/07/24 05:23:29;;;;;;;19.75;8.35;;;29.30;77.70;;;;;;6213650;23;20054;-71
2023/07/24 05:26:02;;;;;;;30.80;8.85;;;29.30;77.50;;;;;;6214078;23;20031;-73
2023/07/24 05:28:29;;;;;;;;;;;29.40;77.60;;;;;;6214588;23;19997;-73
2023/07/24 05:30:55;;;;;;;22.50;9.45;;;29.40;77.30;;;;;;6213732;23;19899;-71
2023/07/24 05:33:21;;;;;;;26.15;8.93;;;29.40;76.70;;;;;;6213833;23;20032;-72
2023/07/24 05:35:49;;;;;;;22.73;8.88;;;29.40;76.70;;;;;;6213477;23;20000;-72
2023/07/24 05:38:15;;;;;;;28.70;9.45;;;29.40;76.70;;;;;;6214400;23;20063;-71
2023/07/24 05:40:40;;;;;;;26.55;8.88;;;29.40;76.40;;;;;;6213811;23;20080;-71
2023/07/24 05:43:06;;;;;;;24.55;9.70;;;29.40;76.10;;;;;;6213624;23;20008;-72
2023/07/24 05:45:32;;;;;;;23.15;8.90;;;29.70;75.50;;;;;;6213433;23;20012;-73
2023/07/24 05:47:57;;;;;;;24.30;8.45;;;29.90;74.50;;;;;;6213540;23;20000;-72
2023/07/24 05:50:23;;;;;;;23.88;8.80;;;30.10;73.50;;;;;;6214132;23;20008;-73
2023/07/24 05:52:49;;;;;;;21.17;8.32;;;30.30;73.10;;;;;;6213665;23;20007;-74
2023/07/24 05:55:14;;;;;;;25.13;8.55;;;30.60;72.00;;;;;;6213909;23;20008;-74
2023/07/24 05:57:40;;;;;;;29.92;9.15;;;30.90;71.30;;;;;;6213438;23;19997;-73
2023/07/24 06:00:06;;;;;;;24.30;8.82;;;31.20;70.50;;;;;;6214429;23;20308;-74
